createdAt,value
2018-05-14T00:01:42.883Z,26.57
2018-05-14T00:04:11.896Z,23.93
2018-05-14T00:06:41.656Z,22.30
2018-05-14T00:09:10.842Z,22.13
2018-05-14T00:11:40.113Z,22.40
2018-05-14T00:14:09.303Z,24.30
2018-05-14T00:16:38.582Z,23.30
2018-05-14T00:19:07.750Z,22.10
2018-05-14T00:21:36.985Z,23.57
2018-05-14T00:24:06.164Z,21.83
2018-05-14T00:26:35.318Z,20.77
2018-05-14T00:29:04.549Z,20.30
2018-05-14T00:31:33.744Z,20.03
2018-05-14T00:34:02.900Z,19.93
2018-05-14T00:36:32.807Z,20.07
2018-05-14T00:39:01.998Z,18.70
2018-05-14T00:41:31.140Z,18.90
2018-05-14T00:44:00.300Z,18.67
2018-05-14T00:46:29.470Z,21.93
2018-05-14T00:48:58.669Z,18.97
2018-05-14T00:51:27.864Z,18.43
2018-05-14T00:53:57.070Z,19.47
2018-05-14T00:56:26.265Z,20.77
2018-05-14T00:58:55.380Z,18.00
2018-05-14T01:01:25.595Z,16.80
2018-05-14T01:03:54.778Z,16.63
2018-05-14T01:06:23.972Z,18.47
2018-05-14T01:08:53.146Z,17.87
2018-05-14T01:11:22.352Z,17.77
2018-05-14T01:13:51.563Z,17.87
2018-05-14T01:16:20.737Z,17.33
2018-05-14T01:18:49.926Z,15.87
2018-05-14T01:21:19.165Z,19.47
2018-05-14T01:23:48.317Z,15.87
2018-05-14T01:26:17.539Z,17.30
2018-05-14T01:28:46.732Z,15.50
2018-05-14T01:31:15.921Z,14.70
2018-05-14T01:34:02.016Z,14.90
2018-05-14T01:36:31.234Z,15.13
2018-05-14T01:39:00.476Z,15.77
2018-05-14T01:41:29.667Z,15.37
2018-05-14T01:43:58.964Z,15.10
2018-05-14T01:46:28.278Z,15.37
2018-05-14T01:48:57.647Z,15.37
2018-05-14T01:51:27.763Z,15.63
2018-05-14T01:53:57.001Z,15.60
2018-05-14T01:56:26.168Z,16.83
2018-05-14T01:58:56.104Z,16.00
2018-05-14T02:01:25.365Z,17.07
2018-05-14T02:04:08.828Z,17.47
2018-05-14T02:06:38.778Z,17.40
2018-05-14T02:09:08.039Z,19.07
2018-05-14T02:11:37.052Z,21.40
2018-05-14T02:14:06.301Z,20.57
2018-05-14T02:16:43.434Z,20.37
2018-05-14T02:19:13.404Z,17.07
2018-05-14T02:21:43.332Z,18.23
2018-05-14T02:24:12.513Z,19.63
2018-05-14T02:26:46.760Z,19.80
2018-05-14T02:29:15.930Z,18.63
2018-05-14T02:31:45.090Z,19.87
2018-05-14T02:34:14.278Z,19.70
2018-05-14T02:36:44.416Z,20.30
2018-05-14T02:39:13.607Z,21.07
2018-05-14T02:41:42.867Z,21.27
2018-05-14T02:44:12.028Z,25.87
2018-05-14T02:46:41.214Z,28.27
2018-05-14T02:49:10.364Z,27.53
2018-05-14T02:51:40.366Z,28.83
2018-05-14T02:54:09.564Z,38.20
2018-05-14T02:56:38.746Z,33.10
2018-05-14T02:59:07.935Z,33.87
2018-05-14T03:01:37.116Z,39.37
2018-05-14T03:04:06.300Z,38.00
2018-05-14T03:06:35.520Z,42.47
2018-05-14T03:09:04.682Z,34.70
2018-05-14T03:11:34.681Z,32.77
2018-05-14T03:14:03.846Z,36.10
2018-05-14T03:16:33.036Z,32.90
2018-05-14T03:19:02.234Z,33.37
2018-05-14T03:21:31.401Z,30.43
2018-05-14T03:24:00.673Z,31.67
2018-05-14T03:26:29.896Z,30.80
2018-05-14T03:28:59.103Z,29.27
2018-05-14T03:31:28.280Z,35.50
2018-05-14T03:33:58.205Z,36.87
2018-05-14T03:36:27.432Z,37.77
2018-05-14T03:38:56.615Z,37.93
2018-05-14T03:41:25.852Z,32.87
2018-05-14T03:43:55.027Z,31.50
2018-05-14T03:46:25.712Z,31.50
2018-05-14T03:48:55.748Z,29.80
2018-05-14T03:51:25.716Z,32.60
2018-05-14T03:53:54.880Z,27.87
2018-05-14T03:56:24.043Z,27.20
2018-05-14T03:59:05.150Z,27.63
2018-05-14T04:01:46.160Z,28.03
2018-05-14T04:04:27.068Z,25.93
2018-05-14T04:06:56.263Z,29.27
2018-05-14T04:09:26.231Z,27.70
2018-05-14T04:11:57.097Z,24.20
2018-05-14T04:14:27.053Z,29.70
2018-05-14T04:16:56.937Z,27.13
2018-05-14T04:19:26.959Z,25.83
2018-05-14T04:21:56.911Z,23.00
2018-05-14T04:24:26.207Z,22.87
2018-05-14T04:26:55.389Z,22.60
2018-05-14T04:29:24.639Z,22.40
2018-05-14T04:31:53.853Z,22.47
2018-05-14T04:34:23.043Z,22.47
2018-05-14T04:36:52.238Z,19.80
2018-05-14T04:39:21.430Z,22.10
2018-05-14T04:41:50.627Z,20.10
2018-05-14T04:44:19.798Z,18.40
2018-05-14T04:46:49.012Z,19.23
2018-05-14T04:49:18.190Z,18.97
2018-05-14T04:51:47.413Z,18.73
2018-05-14T04:54:16.611Z,16.77
2018-05-14T04:56:45.795Z,18.47
2018-05-14T04:59:15.057Z,17.30
2018-05-14T05:01:44.135Z,13.10
2018-05-14T05:04:26.482Z,15.17
2018-05-14T05:06:55.703Z,16.60
2018-05-14T05:09:24.919Z,16.23
2018-05-14T05:11:54.862Z,16.47
2018-05-14T05:14:24.794Z,13.20
2018-05-14T05:16:54.069Z,15.20
2018-05-14T05:19:23.277Z,14.00
2018-05-14T05:21:53.226Z,12.07
2018-05-14T05:24:22.432Z,13.30
2018-05-14T05:26:51.624Z,11.70
2018-05-14T05:29:20.818Z,13.10
2018-05-14T05:31:49.994Z,12.00
2018-05-14T05:34:19.161Z,9.57
2018-05-14T05:36:48.424Z,10.67
2018-05-14T05:39:17.588Z,9.23
2018-05-14T05:42:00.732Z,8.73
2018-05-14T05:44:29.890Z,9.03
2018-05-14T05:47:09.060Z,8.67
2018-05-14T05:49:44.693Z,9.77
2018-05-14T05:52:14.632Z,10.10
2018-05-14T05:54:43.801Z,10.13
2018-05-14T05:57:13.697Z,8.70
2018-05-14T05:59:42.899Z,8.90
2018-05-14T06:02:12.114Z,8.27
2018-05-14T06:04:41.296Z,9.60
2018-05-14T06:07:10.513Z,8.13
2018-05-14T06:09:39.727Z,8.97
2018-05-14T06:12:08.877Z,7.70
2018-05-14T06:14:38.044Z,9.57
2018-05-14T06:17:07.231Z,8.63
2018-05-14T06:19:36.428Z,7.60
2018-05-14T06:22:17.695Z,10.23
2018-05-14T06:24:46.848Z,8.77
2018-05-14T06:27:16.061Z,7.90
2018-05-14T06:29:45.236Z,8.73
2018-05-14T06:32:14.408Z,10.90
2018-05-14T06:34:43.648Z,6.40
2018-05-14T06:37:13.583Z,8.83
2018-05-14T06:39:43.492Z,7.00
2018-05-14T06:42:12.669Z,6.87
2018-05-14T06:44:41.666Z,8.30
2018-05-14T06:47:10.659Z,7.63
2018-05-14T06:49:39.610Z,9.00
2018-05-14T06:52:08.579Z,8.40
2018-05-14T06:54:37.846Z,8.87
2018-05-14T06:57:07.027Z,8.17
2018-05-14T06:59:36.220Z,11.27
2018-05-14T07:02:05.483Z,7.50
2018-05-14T07:04:34.685Z,8.30
2018-05-14T07:07:03.834Z,9.77
2018-05-14T07:09:33.127Z,9.97
2018-05-14T07:12:02.340Z,9.13
2018-05-14T07:14:31.521Z,7.40
2018-05-14T07:17:03.790Z,8.77
2018-05-14T07:19:33.820Z,7.63
2018-05-14T07:22:03.769Z,5.97
2018-05-14T07:24:32.917Z,7.67
2018-05-14T07:27:02.075Z,8.13
2018-05-14T07:29:41.106Z,7.10
2018-05-14T07:32:10.299Z,8.00
2018-05-14T07:34:39.537Z,8.87
2018-05-14T07:37:08.703Z,7.83
2018-05-14T07:39:37.860Z,7.93
2018-05-14T07:42:07.791Z,6.07
2018-05-14T07:44:37.011Z,7.53
2018-05-14T07:47:06.255Z,6.83
2018-05-14T07:49:35.524Z,7.03
2018-05-14T07:52:04.681Z,6.53
2018-05-14T07:54:33.970Z,6.03
2018-05-14T07:57:03.063Z,6.20
2018-05-14T07:59:32.982Z,6.77
2018-05-14T08:02:02.247Z,8.00
2018-05-14T08:04:31.439Z,6.77
2018-05-14T08:07:00.651Z,5.87
2018-05-14T08:09:29.922Z,6.33
2018-05-14T08:11:59.081Z,7.47
2018-05-14T08:14:28.278Z,7.60
2018-05-14T08:16:57.415Z,6.30
2018-05-14T08:19:26.619Z,5.30
2018-05-14T08:21:55.771Z,7.07
2018-05-14T08:24:24.939Z,5.80
2018-05-14T08:26:54.862Z,7.13
2018-05-14T08:29:24.878Z,5.27
2018-05-14T08:31:54.813Z,6.33
2018-05-14T08:34:24.040Z,6.07
2018-05-14T08:36:53.218Z,5.70
2018-05-14T08:39:22.434Z,5.93
2018-05-14T08:41:51.662Z,7.17
2018-05-14T08:44:20.873Z,6.17
2018-05-14T08:46:50.061Z,8.10
2018-05-14T08:49:19.252Z,7.60
2018-05-14T08:51:48.438Z,7.10
2018-05-14T08:54:17.669Z,8.60
2018-05-14T08:56:46.830Z,6.00
2018-05-14T08:59:16.064Z,6.70
2018-05-14T09:01:45.264Z,6.80
2018-05-14T09:04:14.452Z,6.70
2018-05-14T09:06:43.716Z,5.60
2018-05-14T09:09:15.029Z,7.93
2018-05-14T09:11:44.201Z,6.93
2018-05-14T09:14:13.386Z,8.07
2018-05-14T09:16:42.654Z,9.40
2018-05-14T09:19:11.936Z,6.60
2018-05-14T09:21:42.003Z,5.97
2018-05-14T09:24:11.173Z,5.47
2018-05-14T09:26:40.371Z,6.53
2018-05-14T09:29:09.529Z,5.87
2018-05-14T09:31:38.745Z,5.23
2018-05-14T09:34:07.972Z,5.07
2018-05-14T09:36:37.151Z,5.37
2018-05-14T09:39:06.308Z,5.17
2018-05-14T09:41:35.468Z,5.20
2018-05-14T09:44:04.648Z,4.83
2018-05-14T09:46:34.665Z,4.43
2018-05-14T09:49:03.860Z,5.43
2018-05-14T09:51:37.033Z,4.50
2018-05-14T09:54:06.217Z,5.23
2018-05-14T09:56:35.452Z,5.93
2018-05-14T09:59:04.672Z,5.27
2018-05-14T10:01:33.865Z,4.33
2018-05-14T10:04:03.016Z,4.10
2018-05-14T10:06:32.186Z,5.23
2018-05-14T10:09:01.382Z,4.93
2018-05-14T10:11:30.631Z,6.37
2018-05-14T10:13:59.774Z,5.93
2018-05-14T10:16:28.977Z,5.97
2018-05-14T10:18:58.075Z,6.93
2018-05-14T10:21:27.991Z,8.63
2018-05-14T10:23:57.247Z,6.17
2018-05-14T10:26:26.429Z,4.97
2018-05-14T10:28:55.614Z,4.20
2018-05-14T10:31:24.749Z,5.20
2018-05-14T10:33:53.928Z,4.87
2018-05-14T10:36:23.127Z,5.47
2018-05-14T10:38:52.328Z,5.23
2018-05-14T10:41:21.521Z,4.50
2018-05-14T10:43:50.667Z,6.20
2018-05-14T10:46:20.564Z,5.72
2018-05-14T10:48:49.685Z,4.53
2018-05-14T10:51:19.576Z,5.63
2018-05-14T10:53:48.871Z,4.57
2018-05-14T10:56:17.967Z,4.10
2018-05-14T10:58:47.184Z,4.53
2018-05-14T11:01:16.332Z,6.47
2018-05-14T11:03:45.495Z,4.70
2018-05-14T11:06:14.690Z,4.27
2018-05-14T11:08:48.446Z,6.00
2018-05-14T11:11:17.637Z,4.53
2018-05-14T11:13:46.841Z,3.93
2018-05-14T11:16:16.027Z,3.73
2018-05-14T11:18:45.308Z,4.37
2018-05-14T11:21:14.408Z,4.30
2018-05-14T11:23:44.324Z,4.10
2018-05-14T11:26:13.588Z,4.53
2018-05-14T11:28:42.785Z,4.53
2018-05-14T11:31:12.758Z,4.83
2018-05-14T11:33:41.924Z,4.97
2018-05-14T11:36:11.875Z,3.90
2018-05-14T11:38:41.046Z,5.30
2018-05-14T11:41:10.221Z,3.65
2018-05-14T11:43:39.392Z,6.03
2018-05-14T11:46:08.580Z,4.00
2018-05-14T11:48:37.755Z,5.85
2018-05-14T11:51:06.928Z,4.70
2018-05-14T11:53:36.057Z,4.67
2018-05-14T11:56:05.235Z,6.87
2018-05-14T11:58:34.389Z,6.57
2018-05-14T12:01:03.649Z,5.70
2018-05-14T12:03:32.862Z,5.22
2018-05-14T12:06:02.835Z,4.37
2018-05-14T12:08:32.034Z,4.10
2018-05-14T12:11:01.231Z,5.83
2018-05-14T12:13:30.415Z,7.30
2018-05-14T12:15:59.664Z,5.00
2018-05-14T12:18:28.829Z,5.03
2018-05-14T12:20:57.997Z,5.03
2018-05-14T12:23:27.219Z,3.73
2018-05-14T12:25:57.183Z,4.20
2018-05-14T12:28:26.441Z,2.53
2018-05-14T12:30:55.539Z,5.97
2018-05-14T12:33:24.763Z,4.40
2018-05-14T12:35:53.957Z,7.37
2018-05-14T12:38:23.206Z,4.13
2018-05-14T12:40:52.478Z,7.23
2018-05-14T12:43:21.670Z,5.40
2018-05-14T12:45:50.922Z,4.33
2018-05-14T12:48:20.108Z,7.07
2018-05-14T12:50:49.313Z,3.63
2018-05-14T12:53:18.474Z,3.77
2018-05-14T12:56:01.585Z,4.83
2018-05-14T12:58:30.770Z,3.27
2018-05-14T13:00:59.992Z,3.83
2018-05-14T13:03:29.918Z,5.27
2018-05-14T13:05:59.180Z,5.10
2018-05-14T13:08:28.365Z,5.73
2018-05-14T13:10:57.500Z,3.40
2018-05-14T13:13:26.690Z,4.75
2018-05-14T13:15:55.834Z,3.72
2018-05-14T13:18:25.079Z,3.70
2018-05-14T13:20:54.278Z,3.03
2018-05-14T13:23:23.455Z,6.60
2018-05-14T13:25:52.635Z,6.00
2018-05-14T13:28:21.839Z,3.95
2018-05-14T13:30:51.067Z,3.05
2018-05-14T13:33:20.230Z,5.15
2018-05-14T13:35:49.373Z,4.30
2018-05-14T13:38:18.515Z,4.10
2018-05-14T13:40:47.760Z,8.30
2018-05-14T13:43:16.963Z,5.15
2018-05-14T13:45:46.120Z,2.60
2018-05-14T13:48:15.329Z,5.75
2018-05-14T13:50:44.563Z,3.30
2018-05-14T13:53:13.722Z,3.10
2018-05-14T13:55:43.017Z,4.00
2018-05-14T13:58:13.256Z,3.62
2018-05-14T14:00:42.426Z,3.50
2018-05-14T14:03:11.599Z,6.87
2018-05-14T14:05:41.540Z,4.80
2018-05-14T14:08:10.644Z,3.58
2018-05-14T14:10:40.613Z,4.50
2018-05-14T14:13:10.572Z,6.50
2018-05-14T14:15:46.677Z,4.00
2018-05-14T14:18:15.941Z,5.53
2018-05-14T14:20:47.199Z,4.25
2018-05-14T14:23:27.869Z,3.28
2018-05-14T14:25:57.895Z,4.90
2018-05-14T14:28:27.081Z,4.30
2018-05-14T14:30:56.310Z,3.85
2018-05-14T14:33:25.425Z,4.93
2018-05-14T14:35:55.422Z,3.08
2018-05-14T14:38:24.580Z,3.90
2018-05-14T14:40:53.765Z,4.12
2018-05-14T14:43:23.047Z,4.05
2018-05-14T14:45:52.200Z,2.65
2018-05-14T14:48:21.359Z,5.60
2018-05-14T14:50:50.538Z,3.35
2018-05-14T14:53:19.782Z,5.37
2018-05-14T14:55:48.892Z,5.27
2018-05-14T14:58:18.094Z,4.53
2018-05-14T15:00:47.303Z,4.90
2018-05-14T15:03:18.293Z,4.73
2018-05-14T15:05:53.433Z,4.67
2018-05-14T15:08:24.565Z,4.57
2018-05-14T15:10:53.834Z,4.63
2018-05-14T15:13:23.008Z,3.80
2018-05-14T15:16:03.075Z,5.37
2018-05-14T15:18:38.903Z,4.17
2018-05-14T15:21:08.094Z,4.70
2018-05-14T15:23:47.135Z,8.93
2018-05-14T15:26:16.317Z,4.50
2018-05-14T15:28:45.576Z,4.87
2018-05-14T15:31:20.897Z,3.73
2018-05-14T15:33:50.815Z,4.37
2018-05-14T15:36:20.780Z,4.93
2018-05-14T15:38:49.965Z,9.63
2018-05-14T15:41:19.159Z,3.70
2018-05-14T15:43:49.451Z,5.20
2018-05-14T15:46:21.850Z,5.30
2018-05-14T15:48:55.219Z,4.63
2018-05-14T15:51:24.490Z,6.83
2018-05-14T15:54:01.725Z,4.73
2018-05-14T15:56:33.393Z,3.50
2018-05-14T15:59:02.496Z,5.00
2018-05-14T16:01:31.679Z,5.47
2018-05-14T16:04:00.895Z,7.83
2018-05-14T16:06:30.088Z,5.30
2018-05-14T16:09:00.017Z,6.47
2018-05-14T16:11:29.186Z,4.50
2018-05-14T16:13:58.398Z,5.03
2018-05-14T16:16:31.588Z,5.37
2018-05-14T16:19:00.771Z,5.20
2018-05-14T16:21:30.008Z,5.20
2018-05-14T16:23:59.166Z,3.80
2018-05-14T16:26:28.325Z,5.80
2018-05-14T16:28:58.315Z,5.30
2018-05-14T16:31:27.534Z,3.87
2018-05-14T16:33:57.463Z,5.20
2018-05-14T16:36:27.447Z,5.20
2018-05-14T16:38:56.612Z,5.40
2018-05-14T16:41:29.603Z,7.80
2018-05-14T16:43:58.800Z,6.27
2018-05-14T16:46:28.853Z,6.67
2018-05-14T16:48:58.847Z,5.30
2018-05-14T16:51:27.977Z,6.37
2018-05-14T16:53:57.143Z,5.00
2018-05-14T16:56:26.329Z,4.03
2018-05-14T16:58:55.476Z,5.27
2018-05-14T17:01:25.439Z,4.77
2018-05-14T17:03:54.700Z,6.00
2018-05-14T17:06:24.663Z,8.13
2018-05-14T17:08:53.865Z,4.77
2018-05-14T17:11:30.151Z,4.73
2018-05-14T17:13:59.320Z,4.80
2018-05-14T17:16:28.441Z,6.93
2018-05-14T17:18:57.619Z,5.00
2018-05-14T17:21:26.843Z,5.33
2018-05-14T17:23:56.004Z,7.57
2018-05-14T17:26:25.223Z,5.53
2018-05-14T17:28:57.361Z,5.93
2018-05-14T17:31:43.556Z,4.00
2018-05-14T17:34:12.716Z,5.77
2018-05-14T17:36:41.944Z,7.53
2018-05-14T17:39:11.117Z,5.33
2018-05-14T17:41:41.100Z,6.73
2018-05-14T17:44:11.292Z,5.43
2018-05-14T17:46:40.449Z,5.60
2018-05-14T17:49:09.588Z,5.93
2018-05-14T17:51:38.788Z,6.33
2018-05-14T17:54:08.003Z,5.30
2018-05-14T17:56:38.006Z,4.33
2018-05-14T17:59:07.192Z,5.77
2018-05-14T18:01:36.336Z,6.67
2018-05-14T18:04:06.282Z,7.37
2018-05-14T18:06:36.212Z,8.07
2018-05-14T18:09:06.225Z,7.23
2018-05-14T18:11:35.436Z,9.53
2018-05-14T18:14:04.644Z,6.13
2018-05-14T18:16:33.852Z,9.23
2018-05-14T18:19:03.027Z,8.97
2018-05-14T18:21:38.443Z,7.13
2018-05-14T18:24:07.363Z,7.63
2018-05-14T18:26:42.111Z,6.97
2018-05-14T18:29:11.331Z,8.73
2018-05-14T18:31:46.066Z,8.30
2018-05-14T18:34:16.182Z,9.40
2018-05-14T18:36:45.397Z,10.73
2018-05-14T18:39:14.700Z,9.43
2018-05-14T18:41:43.796Z,9.63
2018-05-14T18:44:13.845Z,8.40
2018-05-14T18:46:43.052Z,8.20
2018-05-14T18:49:12.244Z,7.10
2018-05-14T18:51:41.438Z,9.97
2018-05-14T18:54:10.673Z,7.63
2018-05-14T18:56:39.850Z,7.23
2018-05-14T18:59:10.141Z,7.27
2018-05-14T19:01:39.581Z,8.20
2018-05-14T19:04:08.807Z,11.97
2018-05-14T19:06:38.018Z,10.80
2018-05-14T19:09:07.241Z,11.23
2018-05-14T19:11:42.118Z,13.13
2018-05-14T19:14:11.300Z,13.77
2018-05-14T19:16:45.963Z,14.70
2018-05-14T19:19:15.221Z,12.47
2018-05-14T19:21:44.407Z,12.80
2018-05-14T19:24:14.325Z,15.60
2018-05-14T19:26:43.524Z,11.90
2018-05-14T19:32:09.712Z,13.20
2018-05-14T19:34:45.258Z,9.63
2018-05-14T19:37:15.280Z,11.10
2018-05-14T19:39:50.205Z,11.87
2018-05-14T19:42:19.460Z,11.50
2018-05-14T19:44:48.747Z,10.63
2018-05-14T19:47:18.006Z,8.23
2018-05-14T19:49:47.391Z,10.43
2018-05-14T19:52:16.568Z,8.57
2018-05-14T19:54:45.868Z,7.50
2018-05-14T19:57:15.168Z,9.00
2018-05-14T19:59:44.448Z,9.27
2018-05-14T20:02:13.669Z,8.40
2018-05-14T20:04:42.942Z,7.67
2018-05-14T20:07:13.362Z,9.30
2018-05-14T20:09:42.634Z,7.37
2018-05-14T20:12:11.912Z,9.70
2018-05-14T20:14:41.233Z,8.63
2018-05-14T20:17:10.456Z,7.93
2018-05-14T20:19:40.731Z,8.03
2018-05-14T20:22:10.841Z,7.07
2018-05-14T20:24:40.948Z,8.47
2018-05-14T20:27:10.195Z,9.80
2018-05-14T20:29:39.401Z,7.77
2018-05-14T20:32:08.662Z,10.57
2018-05-14T20:34:38.083Z,8.90
2018-05-14T20:37:07.362Z,8.63
2018-05-14T20:39:36.664Z,7.77
2018-05-14T20:42:05.986Z,6.83
2018-05-14T20:44:35.332Z,5.47
2018-05-14T20:47:04.614Z,5.73
2018-05-14T20:49:33.882Z,7.90
2018-05-14T20:52:03.579Z,7.30
2018-05-14T20:54:32.842Z,7.57
2018-05-14T20:57:02.132Z,7.33
2018-05-14T20:59:31.379Z,6.87
2018-05-14T21:02:00.647Z,8.23
2018-05-14T21:04:29.893Z,5.47
2018-05-14T21:06:59.195Z,5.37
2018-05-14T21:09:29.217Z,5.83
2018-05-14T21:11:58.508Z,6.53
2018-05-14T21:14:27.744Z,4.90
2018-05-14T21:16:56.946Z,5.77
2018-05-14T21:19:26.167Z,5.37
2018-05-14T21:21:55.435Z,8.43
2018-05-14T21:24:24.695Z,5.93
2018-05-14T21:26:54.800Z,7.03
2018-05-14T21:29:24.103Z,6.93
2018-05-14T21:31:53.334Z,5.50
2018-05-14T21:34:22.611Z,6.00
2018-05-14T21:36:51.806Z,6.83
2018-05-14T21:39:21.086Z,6.20
2018-05-14T21:41:50.316Z,6.07
2018-05-14T21:44:20.331Z,8.83
2018-05-14T21:46:50.680Z,5.30
2018-05-14T21:49:20.678Z,8.03
2018-05-14T21:51:50.039Z,5.27
2018-05-14T21:54:19.275Z,5.80
2018-05-14T21:56:48.510Z,6.67
2018-05-14T21:59:18.524Z,7.17
2018-05-14T22:01:47.710Z,5.03
2018-05-14T22:04:16.967Z,4.97
2018-05-14T22:06:47.007Z,6.20
2018-05-14T22:09:17.054Z,5.40
2018-05-14T22:11:46.337Z,5.83
2018-05-14T22:14:15.598Z,5.20
2018-05-14T22:16:44.839Z,5.30
2018-05-14T22:19:14.127Z,5.07
2018-05-14T22:21:43.412Z,5.93
2018-05-14T22:24:12.675Z,4.90
2018-05-14T22:26:42.803Z,7.13
2018-05-14T22:29:12.765Z,9.07
2018-05-14T22:31:42.777Z,6.43
2018-05-14T22:34:12.017Z,5.20
2018-05-14T22:36:41.255Z,5.43
2018-05-14T22:39:10.576Z,6.00
2018-05-14T22:41:39.858Z,6.10
2018-05-14T22:44:09.220Z,6.63
2018-05-14T22:46:38.508Z,6.97
2018-05-14T22:49:07.865Z,5.00
2018-05-14T22:51:37.181Z,4.67
2018-05-14T22:54:06.530Z,4.40
2018-05-14T22:56:35.857Z,4.43
2018-05-14T22:59:05.201Z,4.73
2018-05-14T23:01:34.483Z,4.47
2018-05-14T23:04:03.885Z,6.53
2018-05-14T23:06:33.134Z,5.47
2018-05-14T23:09:02.435Z,6.17
2018-05-14T23:11:32.451Z,4.27
2018-05-14T23:14:02.542Z,4.43
2018-05-14T23:16:31.778Z,4.60
2018-05-14T23:19:01.093Z,5.03
2018-05-14T23:21:30.350Z,4.27
2018-05-14T23:24:00.389Z,4.70
2018-05-14T23:26:29.676Z,4.63
2018-05-14T23:28:59.726Z,5.00
2018-05-14T23:31:29.752Z,4.57
2018-05-14T23:33:59.841Z,6.93
2018-05-14T23:36:29.123Z,6.50
2018-05-14T23:38:58.393Z,4.67
2018-05-14T23:41:27.765Z,5.40
2018-05-14T23:43:57.041Z,5.10
2018-05-14T23:46:26.299Z,5.30
2018-05-14T23:48:55.567Z,4.60
2018-05-14T23:51:24.787Z,5.77
2018-05-14T23:53:54.118Z,6.13
2018-05-14T23:56:23.384Z,5.37
2018-05-14T23:58:52.686Z,5.53
